sensor_id;sensor_type;location;lat;lon;timestamp;P1;durP1;ratioP1;P2;durP2;ratioP2
71462;SDS011;59266;52.608;13.260;2024-02-26T00:02:07;16.55;;;5.93;;
71462;SDS011;59266;52.608;13.260;2024-02-26T00:04:33;11.63;;;4.78;;
71462;SDS011;59266;52.608;13.260;2024-02-26T00:07:00;11.30;;;4.97;;
71462;SDS011;59266;52.608;13.260;2024-02-26T00:09:27;12.30;;;4.95;;
71462;SDS011;59266;52.608;13.260;2024-02-26T00:11:53;13.45;;;5.40;;
71462;SDS011;59266;52.608;13.260;2024-02-26T00:14:21;12.57;;;4.82;;
71462;SDS011;59266;52.608;13.260;2024-02-26T00:16:48;15.02;;;5.40;;
71462;SDS011;59266;52.608;13.260;2024-02-26T00:19:15;14.80;;;5.05;;
71462;SDS011;59266;52.608;13.260;2024-02-26T00:21:41;13.93;;;5.80;;
71462;SDS011;59266;52.608;13.260;2024-02-26T00:24:10;19.00;;;5.70;;
71462;SDS011;59266;52.608;13.260;2024-02-26T00:26:37;15.27;;;6.22;;
71462;SDS011;59266;52.608;13.260;2024-02-26T00:29:04;13.00;;;5.88;;
71462;SDS011;59266;52.608;13.260;2024-02-26T00:31:30;14.23;;;5.15;;
71462;SDS011;59266;52.608;13.260;2024-02-26T00:33:57;15.00;;;5.95;;
71462;SDS011;59266;52.608;13.260;2024-02-26T00:36:24;16.92;;;6.70;;
71462;SDS011;59266;52.608;13.260;2024-02-26T00:38:51;17.42;;;6.38;;
71462;SDS011;59266;52.608;13.260;2024-02-26T00:41:17;13.02;;;5.57;;
71462;SDS011;59266;52.608;13.260;2024-02-26T00:43:44;17.17;;;6.65;;
71462;SDS011;59266;52.608;13.260;2024-02-26T00:46:11;17.13;;;7.22;;
71462;SDS011;59266;52.608;13.260;2024-02-26T00:48:37;20.05;;;7.72;;
71462;SDS011;59266;52.608;13.260;2024-02-26T00:51:04;17.80;;;7.10;;
71462;SDS011;59266;52.608;13.260;2024-02-26T00:53:31;20.90;;;8.07;;
71462;SDS011;59266;52.608;13.260;2024-02-26T00:55:58;18.60;;;7.90;;
71462;SDS011;59266;52.608;13.260;2024-02-26T00:58:27;18.80;;;7.82;;
71462;SDS011;59266;52.608;13.260;2024-02-26T01:00:54;20.90;;;8.15;;
71462;SDS011;59266;52.608;13.260;2024-02-26T01:03:21;18.98;;;8.15;;
71462;SDS011;59266;52.608;13.260;2024-02-26T01:05:48;18.77;;;7.95;;
71462;SDS011;59266;52.608;13.260;2024-02-26T01:08:14;19.27;;;7.95;;
71462;SDS011;59266;52.608;13.260;2024-02-26T01:10:41;21.17;;;8.50;;
71462;SDS011;59266;52.608;13.260;2024-02-26T01:13:08;19.20;;;8.90;;
71462;SDS011;59266;52.608;13.260;2024-02-26T01:15:34;19.63;;;9.07;;
71462;SDS011;59266;52.608;13.260;2024-02-26T01:18:01;22.13;;;9.10;;
71462;SDS011;59266;52.608;13.260;2024-02-26T01:20:27;21.90;;;9.07;;
71462;SDS011;59266;52.608;13.260;2024-02-26T01:22:54;20.67;;;7.63;;
71462;SDS011;59266;52.608;13.260;2024-02-26T01:25:20;19.33;;;9.38;;
71462;SDS011;59266;52.608;13.260;2024-02-26T01:27:47;20.05;;;8.57;;
71462;SDS011;59266;52.608;13.260;2024-02-26T01:30:14;20.40;;;8.20;;
71462;SDS011;59266;52.608;13.260;2024-02-26T01:32:43;23.38;;;9.02;;
71462;SDS011;59266;52.608;13.260;2024-02-26T01:35:09;23.33;;;9.32;;
71462;SDS011;59266;52.608;13.260;2024-02-26T01:37:38;23.75;;;8.93;;
71462;SDS011;59266;52.608;13.260;2024-02-26T01:40:05;24.35;;;9.82;;
71462;SDS011;59266;52.608;13.260;2024-02-26T01:42:33;19.85;;;9.25;;
71462;SDS011;59266;52.608;13.260;2024-02-26T01:44:59;22.23;;;9.18;;
71462;SDS011;59266;52.608;13.260;2024-02-26T01:47:26;23.60;;;8.93;;
71462;SDS011;59266;52.608;13.260;2024-02-26T01:49:53;19.85;;;9.57;;
71462;SDS011;59266;52.608;13.260;2024-02-26T01:52:20;23.88;;;10.40;;
71462;SDS011;59266;52.608;13.260;2024-02-26T01:54:48;22.13;;;9.77;;
71462;SDS011;59266;52.608;13.260;2024-02-26T01:57:15;25.60;;;10.52;;
71462;SDS011;59266;52.608;13.260;2024-02-26T01:59:42;19.58;;;9.43;;
71462;SDS011;59266;52.608;13.260;2024-02-26T02:02:09;23.88;;;9.43;;
71462;SDS011;59266;52.608;13.260;2024-02-26T02:04:38;21.42;;;9.43;;
71462;SDS011;59266;52.608;13.260;2024-02-26T02:07:05;21.02;;;9.30;;
71462;SDS011;59266;52.608;13.260;2024-02-26T02:09:32;24.25;;;10.07;;
71462;SDS011;59266;52.608;13.260;2024-02-26T02:11:58;23.05;;;9.15;;
71462;SDS011;59266;52.608;13.260;2024-02-26T02:14:26;20.90;;;9.20;;
71462;SDS011;59266;52.608;13.260;2024-02-26T02:16:53;20.52;;;8.82;;
71462;SDS011;59266;52.608;13.260;2024-02-26T02:19:20;21.98;;;8.93;;
71462;SDS011;59266;52.608;13.260;2024-02-26T02:21:47;18.50;;;8.38;;
71462;SDS011;59266;52.608;13.260;2024-02-26T02:24:13;22.25;;;9.15;;
71462;SDS011;59266;52.608;13.260;2024-02-26T02:26:40;21.67;;;9.55;;
71462;SDS011;59266;52.608;13.260;2024-02-26T02:29:06;22.23;;;8.43;;
71462;SDS011;59266;52.608;13.260;2024-02-26T02:31:33;23.80;;;10.15;;
71462;SDS011;59266;52.608;13.260;2024-02-26T02:34:00;20.77;;;9.90;;
71462;SDS011;59266;52.608;13.260;2024-02-26T02:36:27;21.05;;;9.43;;
71462;SDS011;59266;52.608;13.260;2024-02-26T02:38:54;21.52;;;8.63;;
71462;SDS011;59266;52.608;13.260;2024-02-26T02:41:20;19.83;;;8.77;;
71462;SDS011;59266;52.608;13.260;2024-02-26T02:43:47;20.70;;;9.20;;
71462;SDS011;59266;52.608;13.260;2024-02-26T02:46:14;24.10;;;9.35;;
71462;SDS011;59266;52.608;13.260;2024-02-26T02:48:41;23.00;;;9.23;;
71462;SDS011;59266;52.608;13.260;2024-02-26T02:51:08;19.67;;;8.60;;
71462;SDS011;59266;52.608;13.260;2024-02-26T02:53:35;23.83;;;9.75;;
71462;SDS011;59266;52.608;13.260;2024-02-26T02:56:02;18.10;;;9.02;;
71462;SDS011;59266;52.608;13.260;2024-02-26T02:58:28;25.75;;;9.90;;
71462;SDS011;59266;52.608;13.260;2024-02-26T03:00:58;20.67;;;9.65;;
71462;SDS011;59266;52.608;13.260;2024-02-26T03:03:26;23.15;;;9.25;;
71462;SDS011;59266;52.608;13.260;2024-02-26T03:05:54;19.48;;;9.07;;
71462;SDS011;59266;52.608;13.260;2024-02-26T03:08:21;22.80;;;9.82;;
71462;SDS011;59266;52.608;13.260;2024-02-26T03:10:48;22.67;;;8.93;;
71462;SDS011;59266;52.608;13.260;2024-02-26T03:13:14;20.10;;;9.82;;
71462;SDS011;59266;52.608;13.260;2024-02-26T03:15:41;20.00;;;9.65;;
71462;SDS011;59266;52.608;13.260;2024-02-26T03:18:08;22.60;;;9.43;;
71462;SDS011;59266;52.608;13.260;2024-02-26T03:20:34;23.23;;;9.90;;
71462;SDS011;59266;52.608;13.260;2024-02-26T03:23:01;21.67;;;10.00;;
71462;SDS011;59266;52.608;13.260;2024-02-26T03:25:28;21.77;;;10.52;;
71462;SDS011;59266;52.608;13.260;2024-02-26T03:27:55;23.33;;;10.10;;
71462;SDS011;59266;52.608;13.260;2024-02-26T03:30:22;24.45;;;9.68;;
71462;SDS011;59266;52.608;13.260;2024-02-26T03:32:48;23.33;;;10.40;;
71462;SDS011;59266;52.608;13.260;2024-02-26T03:35:15;21.58;;;9.48;;
71462;SDS011;59266;52.608;13.260;2024-02-26T03:37:42;22.23;;;9.73;;
71462;SDS011;59266;52.608;13.260;2024-02-26T03:40:08;19.02;;;9.25;;
71462;SDS011;59266;52.608;13.260;2024-02-26T03:42:35;24.23;;;9.18;;
71462;SDS011;59266;52.608;13.260;2024-02-26T03:45:02;19.70;;;9.45;;
71462;SDS011;59266;52.608;13.260;2024-02-26T03:47:28;27.13;;;9.73;;
71462;SDS011;59266;52.608;13.260;2024-02-26T03:49:55;24.50;;;10.20;;
71462;SDS011;59266;52.608;13.260;2024-02-26T03:52:21;28.23;;;10.40;;
71462;SDS011;59266;52.608;13.260;2024-02-26T03:54:48;19.85;;;9.15;;
71462;SDS011;59266;52.608;13.260;2024-02-26T03:57:15;21.90;;;9.07;;
71462;SDS011;59266;52.608;13.260;2024-02-26T03:59:41;22.00;;;9.00;;
71462;SDS011;59266;52.608;13.260;2024-02-26T04:02:08;17.60;;;8.18;;
71462;SDS011;59266;52.608;13.260;2024-02-26T04:04:35;25.17;;;9.23;;
71462;SDS011;59266;52.608;13.260;2024-02-26T04:07:02;23.05;;;9.65;;
71462;SDS011;59266;52.608;13.260;2024-02-26T04:09:30;20.52;;;8.93;;
71462;SDS011;59266;52.608;13.260;2024-02-26T04:11:57;24.23;;;9.35;;
71462;SDS011;59266;52.608;13.260;2024-02-26T04:14:24;21.40;;;8.82;;
71462;SDS011;59266;52.608;13.260;2024-02-26T04:16:51;24.27;;;9.27;;
71462;SDS011;59266;52.608;13.260;2024-02-26T04:19:20;25.02;;;8.90;;
71462;SDS011;59266;52.608;13.260;2024-02-26T04:21:47;22.27;;;9.57;;
71462;SDS011;59266;52.608;13.260;2024-02-26T04:24:13;28.33;;;9.15;;
71462;SDS011;59266;52.608;13.260;2024-02-26T04:26:40;21.13;;;8.85;;
71462;SDS011;59266;52.608;13.260;2024-02-26T04:29:06;19.92;;;9.13;;
71462;SDS011;59266;52.608;13.260;2024-02-26T04:31:33;22.52;;;9.65;;
71462;SDS011;59266;52.608;13.260;2024-02-26T04:34:00;18.88;;;8.57;;
71462;SDS011;59266;52.608;13.260;2024-02-26T04:36:27;18.58;;;8.55;;
71462;SDS011;59266;52.608;13.260;2024-02-26T04:38:53;20.15;;;8.93;;
71462;SDS011;59266;52.608;13.260;2024-02-26T04:41:23;21.02;;;9.75;;
71462;SDS011;59266;52.608;13.260;2024-02-26T04:43:49;19.27;;;8.55;;
71462;SDS011;59266;52.608;13.260;2024-02-26T04:46:16;21.20;;;8.52;;
71462;SDS011;59266;52.608;13.260;2024-02-26T04:48:43;22.55;;;9.02;;
71462;SDS011;59266;52.608;13.260;2024-02-26T04:51:12;20.05;;;8.50;;
71462;SDS011;59266;52.608;13.260;2024-02-26T04:53:38;20.40;;;9.20;;
71462;SDS011;59266;52.608;13.260;2024-02-26T04:56:05;20.08;;;8.82;;
71462;SDS011;59266;52.608;13.260;2024-02-26T04:58:32;23.08;;;8.93;;
71462;SDS011;59266;52.608;13.260;2024-02-26T05:00:58;20.17;;;8.27;;
71462;SDS011;59266;52.608;13.260;2024-02-26T05:03:25;19.10;;;8.30;;
71462;SDS011;59266;52.608;13.260;2024-02-26T05:05:52;17.83;;;8.57;;
71462;SDS011;59266;52.608;13.260;2024-02-26T05:08:18;18.60;;;8.38;;
71462;SDS011;59266;52.608;13.260;2024-02-26T05:10:45;22.73;;;9.23;;
71462;SDS011;59266;52.608;13.260;2024-02-26T05:13:12;20.30;;;8.93;;
71462;SDS011;59266;52.608;13.260;2024-02-26T05:15:40;20.88;;;8.50;;
71462;SDS011;59266;52.608;13.260;2024-02-26T05:18:07;19.52;;;8.57;;
71462;SDS011;59266;52.608;13.260;2024-02-26T05:20:34;20.92;;;8.63;;
71462;SDS011;59266;52.608;13.260;2024-02-26T05:23:02;20.83;;;8.40;;
71462;SDS011;59266;52.608;13.260;2024-02-26T05:25:30;22.08;;;8.55;;
71462;SDS011;59266;52.608;13.260;2024-02-26T05:27:57;21.65;;;8.73;;
71462;SDS011;59266;52.608;13.260;2024-02-26T05:30:24;19.00;;;7.97;;
71462;SDS011;59266;52.608;13.260;2024-02-26T05:32:51;22.65;;;8.95;;
71462;SDS011;59266;52.608;13.260;2024-02-26T05:35:17;20.27;;;8.60;;
71462;SDS011;59266;52.608;13.260;2024-02-26T05:37:44;19.92;;;8.25;;
71462;SDS011;59266;52.608;13.260;2024-02-26T05:40:11;18.88;;;8.20;;
71462;SDS011;59266;52.608;13.260;2024-02-26T05:42:37;19.42;;;8.15;;
71462;SDS011;59266;52.608;13.260;2024-02-26T05:45:04;17.25;;;7.68;;
71462;SDS011;59266;52.608;13.260;2024-02-26T05:47:33;19.25;;;8.00;;
71462;SDS011;59266;52.608;13.260;2024-02-26T05:50:00;20.27;;;8.32;;
71462;SDS011;59266;52.608;13.260;2024-02-26T05:52:27;17.73;;;7.85;;
71462;SDS011;59266;52.608;13.260;2024-02-26T05:54:55;19.02;;;8.15;;
71462;SDS011;59266;52.608;13.260;2024-02-26T05:57:22;18.38;;;8.10;;
71462;SDS011;59266;52.608;13.260;2024-02-26T05:59:49;18.52;;;8.18;;
71462;SDS011;59266;52.608;13.260;2024-02-26T06:02:15;18.48;;;7.97;;
71462;SDS011;59266;52.608;13.260;2024-02-26T06:04:42;20.85;;;8.70;;
71462;SDS011;59266;52.608;13.260;2024-02-26T06:07:09;24.55;;;8.85;;
71462;SDS011;59266;52.608;13.260;2024-02-26T06:09:35;18.65;;;7.78;;
71462;SDS011;59266;52.608;13.260;2024-02-26T06:12:02;22.08;;;8.45;;
71462;SDS011;59266;52.608;13.260;2024-02-26T06:14:29;27.83;;;8.07;;
71462;SDS011;59266;52.608;13.260;2024-02-26T06:16:55;22.05;;;8.82;;
71462;SDS011;59266;52.608;13.260;2024-02-26T06:19:22;20.33;;;7.97;;
71462;SDS011;59266;52.608;13.260;2024-02-26T06:21:49;22.63;;;8.10;;
71462;SDS011;59266;52.608;13.260;2024-02-26T06:24:16;17.80;;;7.35;;
71462;SDS011;59266;52.608;13.260;2024-02-26T06:26:43;25.80;;;8.85;;
71462;SDS011;59266;52.608;13.260;2024-02-26T06:29:09;21.17;;;8.15;;
71462;SDS011;59266;52.608;13.260;2024-02-26T06:31:36;20.85;;;8.57;;
71462;SDS011;59266;52.608;13.260;2024-02-26T06:34:02;19.50;;;8.93;;
71462;SDS011;59266;52.608;13.260;2024-02-26T06:36:29;25.38;;;8.88;;
71462;SDS011;59266;52.608;13.260;2024-02-26T06:38:58;22.52;;;8.80;;
71462;SDS011;59266;52.608;13.260;2024-02-26T06:41:24;19.65;;;8.32;;
71462;SDS011;59266;52.608;13.260;2024-02-26T06:43:55;19.10;;;8.43;;
71462;SDS011;59266;52.608;13.260;2024-02-26T06:46:22;19.67;;;8.65;;
71462;SDS011;59266;52.608;13.260;2024-02-26T06:48:49;24.33;;;8.40;;
71462;SDS011;59266;52.608;13.260;2024-02-26T06:51:21;19.55;;;8.35;;
71462;SDS011;59266;52.608;13.260;2024-02-26T06:53:47;28.27;;;8.90;;
71462;SDS011;59266;52.608;13.260;2024-02-26T06:56:15;20.27;;;8.80;;
71462;SDS011;59266;52.608;13.260;2024-02-26T06:58:42;18.58;;;7.93;;
71462;SDS011;59266;52.608;13.260;2024-02-26T07:01:08;21.80;;;9.07;;
71462;SDS011;59266;52.608;13.260;2024-02-26T07:03:36;25.08;;;10.30;;
71462;SDS011;59266;52.608;13.260;2024-02-26T07:06:03;32.30;;;12.77;;
71462;SDS011;59266;52.608;13.260;2024-02-26T07:08:30;30.42;;;12.55;;
71462;SDS011;59266;52.608;13.260;2024-02-26T07:10:56;363.77;;;32.60;;
71462;SDS011;59266;52.608;13.260;2024-02-26T07:13:23;23.65;;;10.30;;
71462;SDS011;59266;52.608;13.260;2024-02-26T07:15:49;18.25;;;8.55;;
71462;SDS011;59266;52.608;13.260;2024-02-26T07:18:16;13.25;;;6.30;;
71462;SDS011;59266;52.608;13.260;2024-02-26T07:20:43;11.20;;;5.60;;
71462;SDS011;59266;52.608;13.260;2024-02-26T07:23:09;11.43;;;5.03;;
71462;SDS011;59266;52.608;13.260;2024-02-26T07:25:36;11.95;;;4.90;;
71462;SDS011;59266;52.608;13.260;2024-02-26T07:28:03;10.45;;;4.80;;
71462;SDS011;59266;52.608;13.260;2024-02-26T07:30:29;12.20;;;5.45;;
71462;SDS011;59266;52.608;13.260;2024-02-26T07:32:56;11.95;;;5.93;;
71462;SDS011;59266;52.608;13.260;2024-02-26T07:35:23;13.32;;;6.60;;
71462;SDS011;59266;52.608;13.260;2024-02-26T07:37:49;17.63;;;6.55;;
71462;SDS011;59266;52.608;13.260;2024-02-26T07:40:16;13.65;;;6.72;;
71462;SDS011;59266;52.608;13.260;2024-02-26T07:42:43;17.27;;;7.40;;
71462;SDS011;59266;52.608;13.260;2024-02-26T07:45:10;11.98;;;6.63;;
71462;SDS011;59266;52.608;13.260;2024-02-26T07:47:36;17.63;;;8.18;;
71462;SDS011;59266;52.608;13.260;2024-02-26T07:50:07;19.15;;;9.85;;
71462;SDS011;59266;52.608;13.260;2024-02-26T07:52:35;21.23;;;9.80;;
71462;SDS011;59266;52.608;13.260;2024-02-26T07:55:01;31.35;;;13.70;;
71462;SDS011;59266;52.608;13.260;2024-02-26T07:57:32;23.13;;;10.45;;
71462;SDS011;59266;52.608;13.260;2024-02-26T08:00:00;26.52;;;12.63;;
71462;SDS011;59266;52.608;13.260;2024-02-26T08:02:27;20.75;;;10.40;;
71462;SDS011;59266;52.608;13.260;2024-02-26T08:04:54;17.17;;;7.78;;
71462;SDS011;59266;52.608;13.260;2024-02-26T08:07:20;19.40;;;9.10;;
71462;SDS011;59266;52.608;13.260;2024-02-26T08:09:47;15.23;;;6.70;;
71462;SDS011;59266;52.608;13.260;2024-02-26T08:12:14;13.80;;;7.18;;
71462;SDS011;59266;52.608;13.260;2024-02-26T08:14:41;15.52;;;7.22;;
71462;SDS011;59266;52.608;13.260;2024-02-26T08:17:09;17.92;;;7.18;;
71462;SDS011;59266;52.608;13.260;2024-02-26T08:19:35;14.25;;;7.35;;
71462;SDS011;59266;52.608;13.260;2024-02-26T08:22:02;14.45;;;7.32;;
71462;SDS011;59266;52.608;13.260;2024-02-26T08:24:30;15.80;;;7.30;;
71462;SDS011;59266;52.608;13.260;2024-02-26T08:26:57;14.05;;;7.22;;
71462;SDS011;59266;52.608;13.260;2024-02-26T08:29:23;15.13;;;7.40;;
71462;SDS011;59266;52.608;13.260;2024-02-26T08:31:50;14.57;;;7.25;;
71462;SDS011;59266;52.608;13.260;2024-02-26T08:34:16;16.95;;;7.32;;
71462;SDS011;59266;52.608;13.260;2024-02-26T08:36:43;17.00;;;7.55;;
71462;SDS011;59266;52.608;13.260;2024-02-26T08:39:10;15.45;;;7.45;;
71462;SDS011;59266;52.608;13.260;2024-02-26T08:41:39;14.80;;;8.50;;
71462;SDS011;59266;52.608;13.260;2024-02-26T08:44:06;15.50;;;7.65;;
71462;SDS011;59266;52.608;13.260;2024-02-26T08:46:32;14.93;;;7.45;;
71462;SDS011;59266;52.608;13.260;2024-02-26T08:48:59;15.05;;;8.15;;
71462;SDS011;59266;52.608;13.260;2024-02-26T08:51:26;14.27;;;7.53;;
71462;SDS011;59266;52.608;13.260;2024-02-26T08:53:53;17.67;;;8.05;;
71462;SDS011;59266;52.608;13.260;2024-02-26T08:56:20;19.35;;;9.30;;
71462;SDS011;59266;52.608;13.260;2024-02-26T08:58:47;17.27;;;8.43;;
71462;SDS011;59266;52.608;13.260;2024-02-26T09:01:19;17.02;;;8.30;;
71462;SDS011;59266;52.608;13.260;2024-02-26T09:03:46;18.67;;;8.57;;
71462;SDS011;59266;52.608;13.260;2024-02-26T09:06:14;16.40;;;8.38;;
71462;SDS011;59266;52.608;13.260;2024-02-26T09:08:41;21.40;;;9.45;;
71462;SDS011;59266;52.608;13.260;2024-02-26T09:11:08;19.63;;;9.23;;
71462;SDS011;59266;52.608;13.260;2024-02-26T09:13:36;16.55;;;8.73;;
71462;SDS011;59266;52.608;13.260;2024-02-26T09:16:03;19.88;;;9.57;;
71462;SDS011;59266;52.608;13.260;2024-02-26T09:18:29;24.25;;;9.10;;
71462;SDS011;59266;52.608;13.260;2024-02-26T09:20:56;17.92;;;9.73;;
71462;SDS011;59266;52.608;13.260;2024-02-26T09:23:23;18.45;;;9.07;;
71462;SDS011;59266;52.608;13.260;2024-02-26T09:25:50;18.38;;;9.45;;
71462;SDS011;59266;52.608;13.260;2024-02-26T09:28:16;17.90;;;8.93;;
71462;SDS011;59266;52.608;13.260;2024-02-26T09:30:44;18.38;;;9.23;;
71462;SDS011;59266;52.608;13.260;2024-02-26T09:33:10;21.10;;;9.55;;
71462;SDS011;59266;52.608;13.260;2024-02-26T09:35:38;17.20;;;8.93;;
71462;SDS011;59266;52.608;13.260;2024-02-26T09:38:04;19.45;;;9.32;;
71462;SDS011;59266;52.608;13.260;2024-02-26T09:40:33;18.35;;;9.23;;
71462;SDS011;59266;52.608;13.260;2024-02-26T09:43:00;17.20;;;8.90;;
71462;SDS011;59266;52.608;13.260;2024-02-26T09:45:30;19.65;;;9.32;;
71462;SDS011;59266;52.608;13.260;2024-02-26T09:47:59;17.88;;;9.05;;
71462;SDS011;59266;52.608;13.260;2024-02-26T09:50:30;19.05;;;10.60;;
71462;SDS011;59266;52.608;13.260;2024-02-26T09:52:56;16.33;;;8.80;;
71462;SDS011;59266;52.608;13.260;2024-02-26T09:55:25;22.17;;;9.70;;
71462;SDS011;59266;52.608;13.260;2024-02-26T09:57:52;21.67;;;9.70;;
71462;SDS011;59266;52.608;13.260;2024-02-26T10:00:20;17.38;;;8.95;;
71462;SDS011;59266;52.608;13.260;2024-02-26T10:02:48;21.58;;;9.68;;
71462;SDS011;59266;52.608;13.260;2024-02-26T10:05:18;17.50;;;9.23;;
71462;SDS011;59266;52.608;13.260;2024-02-26T10:07:45;19.63;;;9.20;;
71462;SDS011;59266;52.608;13.260;2024-02-26T10:10:13;18.65;;;9.07;;
71462;SDS011;59266;52.608;13.260;2024-02-26T10:12:40;20.00;;;9.20;;
71462;SDS011;59266;52.608;13.260;2024-02-26T10:15:07;17.48;;;9.25;;
71462;SDS011;59266;52.608;13.260;2024-02-26T10:17:34;18.77;;;9.77;;
71462;SDS011;59266;52.608;13.260;2024-02-26T10:20:16;18.65;;;9.30;;
71462;SDS011;59266;52.608;13.260;2024-02-26T10:22:50;16.92;;;8.38;;
71462;SDS011;59266;52.608;13.260;2024-02-26T10:25:18;15.32;;;8.43;;
71462;SDS011;59266;52.608;13.260;2024-02-26T10:27:45;15.77;;;8.85;;
71462;SDS011;59266;52.608;13.260;2024-02-26T10:30:15;16.08;;;8.60;;
71462;SDS011;59266;52.608;13.260;2024-02-26T10:32:45;16.02;;;8.70;;
71462;SDS011;59266;52.608;13.260;2024-02-26T10:35:15;16.10;;;7.78;;
71462;SDS011;59266;52.608;13.260;2024-02-26T10:37:44;17.75;;;8.85;;
71462;SDS011;59266;52.608;13.260;2024-02-26T10:40:11;15.07;;;8.13;;
71462;SDS011;59266;52.608;13.260;2024-02-26T10:42:38;15.45;;;8.35;;
71462;SDS011;59266;52.608;13.260;2024-02-26T10:45:06;15.77;;;7.93;;
71462;SDS011;59266;52.608;13.260;2024-02-26T10:47:33;18.17;;;8.50;;
71462;SDS011;59266;52.608;13.260;2024-02-26T10:50:01;18.35;;;8.45;;
71462;SDS011;59266;52.608;13.260;2024-02-26T10:52:32;14.95;;;7.93;;
71462;SDS011;59266;52.608;13.260;2024-02-26T10:55:04;14.68;;;7.90;;
71462;SDS011;59266;52.608;13.260;2024-02-26T10:57:38;14.40;;;8.15;;
71462;SDS011;59266;52.608;13.260;2024-02-26T11:00:07;15.98;;;7.75;;
71462;SDS011;59266;52.608;13.260;2024-02-26T11:02:39;13.25;;;6.60;;
71462;SDS011;59266;52.608;13.260;2024-02-26T11:05:07;11.95;;;6.78;;
71462;SDS011;59266;52.608;13.260;2024-02-26T11:07:34;13.18;;;6.40;;
71462;SDS011;59266;52.608;13.260;2024-02-26T11:10:05;13.57;;;6.10;;
71462;SDS011;59266;52.608;13.260;2024-02-26T11:12:33;13.75;;;6.18;;
71462;SDS011;59266;52.608;13.260;2024-02-26T11:15:04;14.18;;;6.60;;
71462;SDS011;59266;52.608;13.260;2024-02-26T11:17:31;14.13;;;6.60;;
71462;SDS011;59266;52.608;13.260;2024-02-26T11:19:59;14.93;;;6.45;;
71462;SDS011;59266;52.608;13.260;2024-02-26T11:22:26;13.82;;;6.50;;
71462;SDS011;59266;52.608;13.260;2024-02-26T11:24:53;13.13;;;6.35;;
71462;SDS011;59266;52.608;13.260;2024-02-26T11:27:23;14.05;;;6.68;;
71462;SDS011;59266;52.608;13.260;2024-02-26T11:29:52;10.65;;;5.72;;
71462;SDS011;59266;52.608;13.260;2024-02-26T11:32:21;14.38;;;6.60;;
71462;SDS011;59266;52.608;13.260;2024-02-26T11:34:48;13.38;;;5.70;;
71462;SDS011;59266;52.608;13.260;2024-02-26T11:37:16;13.70;;;6.05;;
71462;SDS011;59266;52.608;13.260;2024-02-26T11:39:45;11.77;;;5.85;;
71462;SDS011;59266;52.608;13.260;2024-02-26T11:42:15;12.27;;;5.85;;
71462;SDS011;59266;52.608;13.260;2024-02-26T11:44:43;11.32;;;5.60;;
71462;SDS011;59266;52.608;13.260;2024-02-26T11:47:13;12.07;;;5.75;;
71462;SDS011;59266;52.608;13.260;2024-02-26T11:49:40;11.95;;;5.43;;
71462;SDS011;59266;52.608;13.260;2024-02-26T11:52:08;12.88;;;5.75;;
71462;SDS011;59266;52.608;13.260;2024-02-26T12:02:45;11.35;;;5.03;;
71462;SDS011;59266;52.608;13.260;2024-02-26T12:05:17;10.85;;;5.25;;
71462;SDS011;59266;52.608;13.260;2024-02-26T12:07:48;10.15;;;4.65;;
71462;SDS011;59266;52.608;13.260;2024-02-26T12:10:26;12.60;;;5.45;;
71462;SDS011;59266;52.608;13.260;2024-02-26T12:12:53;12.23;;;4.88;;
71462;SDS011;59266;52.608;13.260;2024-02-26T12:15:34;9.63;;;4.90;;
71462;SDS011;59266;52.608;13.260;2024-02-26T12:18:04;9.55;;;4.68;;
71462;SDS011;59266;52.608;13.260;2024-02-26T12:20:32;10.80;;;4.65;;
71462;SDS011;59266;52.608;13.260;2024-02-26T12:22:58;11.20;;;4.78;;
71462;SDS011;59266;52.608;13.260;2024-02-26T12:25:26;9.25;;;4.50;;
71462;SDS011;59266;52.608;13.260;2024-02-26T12:27:54;10.02;;;4.68;;
71462;SDS011;59266;52.608;13.260;2024-02-26T12:30:21;11.32;;;4.00;;
71462;SDS011;59266;52.608;13.260;2024-02-26T12:32:49;10.93;;;4.40;;
71462;SDS011;59266;52.608;13.260;2024-02-26T12:35:17;9.85;;;4.15;;
71462;SDS011;59266;52.608;13.260;2024-02-26T12:37:44;11.13;;;4.60;;
71462;SDS011;59266;52.608;13.260;2024-02-26T12:40:10;9.57;;;3.80;;
71462;SDS011;59266;52.608;13.260;2024-02-26T12:42:38;7.20;;;3.25;;
71462;SDS011;59266;52.608;13.260;2024-02-26T12:45:08;9.55;;;3.50;;
71462;SDS011;59266;52.608;13.260;2024-02-26T12:47:38;8.50;;;3.83;;
71462;SDS011;59266;52.608;13.260;2024-02-26T12:50:05;7.80;;;3.55;;
71462;SDS011;59266;52.608;13.260;2024-02-26T12:52:37;7.30;;;3.30;;
71462;SDS011;59266;52.608;13.260;2024-02-26T12:55:06;8.57;;;3.90;;
71462;SDS011;59266;52.608;13.260;2024-02-26T12:57:36;9.35;;;3.28;;
71462;SDS011;59266;52.608;13.260;2024-02-26T13:00:04;7.20;;;2.80;;
71462;SDS011;59266;52.608;13.260;2024-02-26T13:02:33;7.25;;;3.10;;
71462;SDS011;59266;52.608;13.260;2024-02-26T13:05:00;8.18;;;2.90;;
71462;SDS011;59266;52.608;13.260;2024-02-26T13:07:30;8.50;;;2.88;;
71462;SDS011;59266;52.608;13.260;2024-02-26T13:09:56;8.55;;;3.10;;
71462;SDS011;59266;52.608;13.260;2024-02-26T13:12:23;8.52;;;3.17;;
71462;SDS011;59266;52.608;13.260;2024-02-26T13:15:01;7.78;;;3.40;;
71462;SDS011;59266;52.608;13.260;2024-02-26T13:17:31;8.57;;;2.75;;
71462;SDS011;59266;52.608;13.260;2024-02-26T13:19:58;7.32;;;2.78;;
71462;SDS011;59266;52.608;13.260;2024-02-26T13:22:26;8.65;;;2.70;;
71462;SDS011;59266;52.608;13.260;2024-02-26T13:24:59;6.93;;;2.90;;
71462;SDS011;59266;52.608;13.260;2024-02-26T13:27:26;6.95;;;2.00;;
71462;SDS011;59266;52.608;13.260;2024-02-26T13:30:08;7.95;;;3.10;;
71462;SDS011;59266;52.608;13.260;2024-02-26T13:32:38;8.18;;;2.90;;
71462;SDS011;59266;52.608;13.260;2024-02-26T13:35:08;9.40;;;3.05;;
71462;SDS011;59266;52.608;13.260;2024-02-26T13:37:36;7.00;;;2.88;;
71462;SDS011;59266;52.608;13.260;2024-02-26T13:40:09;8.77;;;2.95;;
71462;SDS011;59266;52.608;13.260;2024-02-26T13:42:38;7.43;;;2.88;;
71462;SDS011;59266;52.608;13.260;2024-02-26T13:45:05;6.75;;;2.65;;
71462;SDS011;59266;52.608;13.260;2024-02-26T13:47:35;14.50;;;3.03;;
71462;SDS011;59266;52.608;13.260;2024-02-26T13:50:02;8.77;;;2.90;;
71462;SDS011;59266;52.608;13.260;2024-02-26T13:52:29;7.57;;;2.88;;
71462;SDS011;59266;52.608;13.260;2024-02-26T13:55:00;8.05;;;2.72;;
71462;SDS011;59266;52.608;13.260;2024-02-26T13:57:28;7.78;;;2.88;;
71462;SDS011;59266;52.608;13.260;2024-02-26T13:59:55;7.05;;;2.95;;
71462;SDS011;59266;52.608;13.260;2024-02-26T14:02:22;8.75;;;3.28;;
71462;SDS011;59266;52.608;13.260;2024-02-26T14:04:48;8.23;;;2.97;;
71462;SDS011;59266;52.608;13.260;2024-02-26T14:07:15;8.30;;;3.00;;
71462;SDS011;59266;52.608;13.260;2024-02-26T14:09:43;8.80;;;2.95;;
71462;SDS011;59266;52.608;13.260;2024-02-26T14:12:15;8.02;;;2.65;;
71462;SDS011;59266;52.608;13.260;2024-02-26T14:14:47;7.13;;;2.88;;
71462;SDS011;59266;52.608;13.260;2024-02-26T14:17:15;7.45;;;2.80;;
71462;SDS011;59266;52.608;13.260;2024-02-26T14:19:42;7.20;;;3.00;;
71462;SDS011;59266;52.608;13.260;2024-02-26T14:22:14;7.57;;;2.80;;
71462;SDS011;59266;52.608;13.260;2024-02-26T14:24:43;6.93;;;2.80;;
71462;SDS011;59266;52.608;13.260;2024-02-26T14:27:11;11.10;;;3.20;;
71462;SDS011;59266;52.608;13.260;2024-02-26T14:29:43;8.38;;;2.60;;
71462;SDS011;59266;52.608;13.260;2024-02-26T14:32:10;7.47;;;2.78;;
71462;SDS011;59266;52.608;13.260;2024-02-26T14:34:36;8.90;;;2.97;;